NEW HOGAN LAKE (NHG)

Elevation: 554' · CALAVERAS R basin · Operator: US Army Corps of Engineers

Provisional data, subject to change.
Query executed Saturday at 23:58:14

Select a sensor type for a plot of data.
Note: Reservoir Flows are daily averages.

Earlier

Date RES ELE    STORAGE    RES CHG    TOC STO    ABV TOC    OUTFLOW    INFLOW    FNF    PPT INC    TEMP MN    TEMP MX   
 FEET   AF   AF   AF   AF   CFS   CFS   CFS   INCHES   DEG F   DEG F  
11/11/2016 634.09 76373 -58 203493 -127120 38 18 18 0.00 53 81
11/12/2016 634.05 76297 -- 200789 -124492 38 7 -- 0.00 13 24
11/13/2016 634.02 76240 -- 198084 -121844 38 17 -- 0.00 10 23
11/14/2016 633.99 76182 -58 195379 -119197 38 17 17 0.00 9 24
11/15/2016 633.96 76125 -- 192674 -116549 38 15 15 0.15 9 21
11/16/2016 633.93 76068 -57 189969 -113901 38 14 14 0.00 6 14
11/17/2016 633.88 75973 -95 187264 -111291 38 -4 -4 0.00 4 15
11/18/2016 633.85 75916 -57 184559 -108643 31 11 11 0.00 5 21
11/19/2016 633.84 75897 -- 181854 -105957 25 23 23 0.11 12 19
11/20/2016 633.87 75954 -- 179149 -103195 26 58 58 0.70 11 16
11/21/2016 633.90 76011 57 176444 -100433 26 58 58 0.11 8 14
11/22/2016 633.91 76030 19 173739 -97709 26 40 40 0.02 6 15
11/23/2016 633.93 76068 38 171034 -94966 34 57 57 0.15 7 15
11/24/2016 633.93 76068 0 168330 -92262 42 47 47 0.00 4 15
11/25/2016 633.93 76068 0 165625 -89557 40 44 44 0.01 5 13
11/26/2016 633.98 76163 95 162920 -86757 37 89 89 0.66 8 12
11/27/2016 634.19 76564 401 160215 -83651 27 234 234 0.27 8 13
11/28/2016 634.35 76871 307 157510 -80639 22 179 179 0.05 6 9
11/29/2016 634.44 77043 172 154805 -77762 27 117 117 0.00 4 14
11/30/2016 634.48 77120 77 152100 -74980 30 72 72 0.00 5 14
12/01/2016 634.51 77178 58 152100 -74922 34 67 67 0.00 4 12
12/02/2016 634.51 77178 0 152100 -74922 36 43 43 0.00 3 14
12/03/2016 634.52 77197 19 152100 -74903 35 49 49 0.00 4 14
12/04/2016 634.51 77178 -19 152100 -74922 36 30 30 0.00 5 15
12/05/2016 634.51 77178 0 152100 -74922 36 39 39 0.00 4 12
12/06/2016 634.50 77158 -20 152100 -74942 40 34 34 0.01 3 13
12/07/2016 634.48 77120 -38 152100 -74980 45 29 29 0.16 1 10
12/08/2016 634.48 77120 0 152100 -74980 47 50 50 0.16 7 14
12/09/2016 634.49 77139 19 152100 -74961 39 53 -- 0.00 12 18
12/10/2016 -- -- -- -- -- -- -- -- -- -- --

Later | Latest

Warning! This data is preliminary and subject to revision.

Show NHG Map | Plot NHG Data | 1 Month NHG Data | Real-Time NHG Data | NHG Info